sensor_id;sensor_type;location;lat;lon;timestamp;temperature;humidity
27258;DHT22;62045;49.986;8.672;2022-12-29T00:04:00;15.50;63.70
27258;DHT22;62045;49.986;8.672;2022-12-29T00:09:01;15.50;63.70
27258;DHT22;62045;49.986;8.672;2022-12-29T00:14:02;15.50;63.50
27258;DHT22;62045;49.986;8.672;2022-12-29T00:19:04;15.50;63.50
27258;DHT22;62045;49.986;8.672;2022-12-29T00:24:05;15.50;63.50
27258;DHT22;62045;49.986;8.672;2022-12-29T00:29:07;15.50;63.30
27258;DHT22;62045;49.986;8.672;2022-12-29T00:34:11;15.50;63.20
27258;DHT22;62045;49.986;8.672;2022-12-29T00:39:13;15.50;63.20
27258;DHT22;62045;49.986;8.672;2022-12-29T00:44:16;15.50;63.20
27258;DHT22;62045;49.986;8.672;2022-12-29T00:49:19;15.50;63.10
27258;DHT22;62045;49.986;8.672;2022-12-29T00:54:20;15.50;63.00
27258;DHT22;62045;49.986;8.672;2022-12-29T00:59:21;15.50;63.00
27258;DHT22;62045;49.986;8.672;2022-12-29T01:04:25;15.50;62.90
27258;DHT22;62045;49.986;8.672;2022-12-29T01:09:26;15.50;62.80
27258;DHT22;62045;49.986;8.672;2022-12-29T01:14:27;15.50;62.80
27258;DHT22;62045;49.986;8.672;2022-12-29T01:19:29;15.50;62.80
27258;DHT22;62045;49.986;8.672;2022-12-29T01:24:30;15.50;62.80
27258;DHT22;62045;49.986;8.672;2022-12-29T01:29:31;15.50;62.70
27258;DHT22;62045;49.986;8.672;2022-12-29T01:34:33;15.50;62.70
27258;DHT22;62045;49.986;8.672;2022-12-29T01:39:33;15.50;62.70
27258;DHT22;62045;49.986;8.672;2022-12-29T01:44:50;15.50;62.60
27258;DHT22;62045;49.986;8.672;2022-12-29T01:49:54;15.50;62.60
27258;DHT22;62045;49.986;8.672;2022-12-29T01:54:56;15.50;62.60
27258;DHT22;62045;49.986;8.672;2022-12-29T02:00:01;15.40;62.60
27258;DHT22;62045;49.986;8.672;2022-12-29T02:05:05;15.50;62.60
27258;DHT22;62045;49.986;8.672;2022-12-29T02:10:07;15.50;62.70
27258;DHT22;62045;49.986;8.672;2022-12-29T02:15:08;15.50;62.60
27258;DHT22;62045;49.986;8.672;2022-12-29T02:20:55;15.40;62.40
27258;DHT22;62045;49.986;8.672;2022-12-29T02:26:16;15.40;62.50
27258;DHT22;62045;49.986;8.672;2022-12-29T02:31:24;15.40;62.50
27258;DHT22;62045;49.986;8.672;2022-12-29T02:36:35;15.40;62.40
27258;DHT22;62045;49.986;8.672;2022-12-29T02:41:44;15.40;62.50
27258;DHT22;62045;49.986;8.672;2022-12-29T02:46:53;15.50;62.50
27258;DHT22;62045;49.986;8.672;2022-12-29T02:51:59;15.40;62.60
27258;DHT22;62045;49.986;8.672;2022-12-29T02:57:00;15.40;62.70
27258;DHT22;62045;49.986;8.672;2022-12-29T03:02:23;15.40;62.70
27258;DHT22;62045;49.986;8.672;2022-12-29T03:07:34;15.50;62.60
27258;DHT22;62045;49.986;8.672;2022-12-29T03:12:45;15.50;62.60
27258;DHT22;62045;49.986;8.672;2022-12-29T03:17:54;15.50;62.60
27258;DHT22;62045;49.986;8.672;2022-12-29T03:22:59;15.50;62.50
27258;DHT22;62045;49.986;8.672;2022-12-29T03:28:04;15.50;62.50
27258;DHT22;62045;49.986;8.672;2022-12-29T03:33:13;15.60;62.50
27258;DHT22;62045;49.986;8.672;2022-12-29T03:38:18;15.50;62.40
27258;DHT22;62045;49.986;8.672;2022-12-29T03:43:22;15.50;62.50
27258;DHT22;62045;49.986;8.672;2022-12-29T03:48:24;15.50;62.50
27258;DHT22;62045;49.986;8.672;2022-12-29T03:53:28;15.50;62.50
27258;DHT22;62045;49.986;8.672;2022-12-29T03:58:29;15.50;62.50
27258;DHT22;62045;49.986;8.672;2022-12-29T04:03:47;15.50;62.50
27258;DHT22;62045;49.986;8.672;2022-12-29T04:08:47;15.50;62.40
27258;DHT22;62045;49.986;8.672;2022-12-29T04:13:48;15.50;62.40
27258;DHT22;62045;49.986;8.672;2022-12-29T04:18:55;15.50;62.40
27258;DHT22;62045;49.986;8.672;2022-12-29T04:23:57;15.50;62.30
27258;DHT22;62045;49.986;8.672;2022-12-29T04:28:57;15.50;62.30
27258;DHT22;62045;49.986;8.672;2022-12-29T04:34:18;15.50;62.30
27258;DHT22;62045;49.986;8.672;2022-12-29T04:39:20;15.50;62.20
27258;DHT22;62045;49.986;8.672;2022-12-29T04:44:22;15.50;62.20
27258;DHT22;62045;49.986;8.672;2022-12-29T04:49:47;15.50;62.20
27258;DHT22;62045;49.986;8.672;2022-12-29T04:55:11;15.50;62.20
27258;DHT22;62045;49.986;8.672;2022-12-29T05:00:13;15.50;62.10
27258;DHT22;62045;49.986;8.672;2022-12-29T05:05:16;15.50;62.10
27258;DHT22;62045;49.986;8.672;2022-12-29T05:10:21;15.50;62.10
27258;DHT22;62045;49.986;8.672;2022-12-29T05:15:24;15.50;62.10
27258;DHT22;62045;49.986;8.672;2022-12-29T05:20:26;15.50;62.20
27258;DHT22;62045;49.986;8.672;2022-12-29T05:25:27;15.40;62.00
27258;DHT22;62045;49.986;8.672;2022-12-29T05:30:42;15.40;62.00
27258;DHT22;62045;49.986;8.672;2022-12-29T05:35:44;15.50;62.00
27258;DHT22;62045;49.986;8.672;2022-12-29T05:40:46;15.40;61.90
27258;DHT22;62045;49.986;8.672;2022-12-29T05:46:01;15.40;61.90
27258;DHT22;62045;49.986;8.672;2022-12-29T05:51:21;15.50;61.90
27258;DHT22;62045;49.986;8.672;2022-12-29T05:56:23;15.50;61.90
27258;DHT22;62045;49.986;8.672;2022-12-29T06:01:31;15.40;61.90
27258;DHT22;62045;49.986;8.672;2022-12-29T06:06:33;15.50;61.90
27258;DHT22;62045;49.986;8.672;2022-12-29T06:11:34;15.40;61.90
27258;DHT22;62045;49.986;8.672;2022-12-29T06:16:35;15.40;61.80
27258;DHT22;62045;49.986;8.672;2022-12-29T06:21:40;15.40;61.80
27258;DHT22;62045;49.986;8.672;2022-12-29T06:26:41;15.50;61.90
27258;DHT22;62045;49.986;8.672;2022-12-29T06:31:42;15.50;61.80
27258;DHT22;62045;49.986;8.672;2022-12-29T06:36:44;15.40;61.80
27258;DHT22;62045;49.986;8.672;2022-12-29T06:41:45;15.40;61.70
27258;DHT22;62045;49.986;8.672;2022-12-29T06:46:45;15.40;61.90
27258;DHT22;62045;49.986;8.672;2022-12-29T06:51:47;15.50;62.00
27258;DHT22;62045;49.986;8.672;2022-12-29T06:56:48;15.50;62.10
27258;DHT22;62045;49.986;8.672;2022-12-29T07:01:49;15.50;62.00
27258;DHT22;62045;49.986;8.672;2022-12-29T07:06:51;15.50;61.90
27258;DHT22;62045;49.986;8.672;2022-12-29T07:11:52;15.50;61.90
27258;DHT22;62045;49.986;8.672;2022-12-29T07:16:52;15.50;61.80
27258;DHT22;62045;49.986;8.672;2022-12-29T07:21:55;15.50;61.80
27258;DHT22;62045;49.986;8.672;2022-12-29T07:26:56;15.60;61.80
27258;DHT22;62045;49.986;8.672;2022-12-29T07:31:57;15.60;61.70
27258;DHT22;62045;49.986;8.672;2022-12-29T07:36:59;15.50;61.80
27258;DHT22;62045;49.986;8.672;2022-12-29T07:41:59;15.50;61.80
27258;DHT22;62045;49.986;8.672;2022-12-29T07:47:04;15.50;61.90
27258;DHT22;62045;49.986;8.672;2022-12-29T07:52:06;15.40;61.90
27258;DHT22;62045;49.986;8.672;2022-12-29T07:57:07;15.50;62.30
27258;DHT22;62045;49.986;8.672;2022-12-29T08:02:09;15.60;61.60
27258;DHT22;62045;49.986;8.672;2022-12-29T08:07:11;15.60;61.70
27258;DHT22;62045;49.986;8.672;2022-12-29T08:12:12;15.60;63.50
27258;DHT22;62045;49.986;8.672;2022-12-29T08:17:12;15.70;64.30
27258;DHT22;62045;49.986;8.672;2022-12-29T08:22:15;15.70;63.80
27258;DHT22;62045;49.986;8.672;2022-12-29T08:27:16;15.70;63.60
27258;DHT22;62045;49.986;8.672;2022-12-29T08:32:17;15.70;63.50
27258;DHT22;62045;49.986;8.672;2022-12-29T08:37:19;15.70;63.40
27258;DHT22;62045;49.986;8.672;2022-12-29T08:42:20;15.70;63.40
27258;DHT22;62045;49.986;8.672;2022-12-29T08:47:20;15.70;63.40
27258;DHT22;62045;49.986;8.672;2022-12-29T08:52:22;15.80;65.60
27258;DHT22;62045;49.986;8.672;2022-12-29T08:57:23;15.90;65.70
27258;DHT22;62045;49.986;8.672;2022-12-29T09:02:39;15.90;65.40
27258;DHT22;62045;49.986;8.672;2022-12-29T09:07:41;16.00;65.20
27258;DHT22;62045;49.986;8.672;2022-12-29T09:12:42;16.00;65.50
27258;DHT22;62045;49.986;8.672;2022-12-29T09:17:42;16.00;65.70
27258;DHT22;62045;49.986;8.672;2022-12-29T09:22:45;16.10;65.30
27258;DHT22;62045;49.986;8.672;2022-12-29T09:27:46;16.10;64.90
27258;DHT22;62045;49.986;8.672;2022-12-29T09:32:47;16.10;64.80
27258;DHT22;62045;49.986;8.672;2022-12-29T09:37:49;16.10;64.70
27258;DHT22;62045;49.986;8.672;2022-12-29T09:43:05;16.10;64.80
27258;DHT22;62045;49.986;8.672;2022-12-29T09:48:18;16.10;64.80
27258;DHT22;62045;49.986;8.672;2022-12-29T09:53:27;16.10;64.90
27258;DHT22;62045;49.986;8.672;2022-12-29T09:58:34;16.10;64.90
27258;DHT22;62045;49.986;8.672;2022-12-29T10:03:44;16.10;65.40
27258;DHT22;62045;49.986;8.672;2022-12-29T10:08:55;16.20;65.30
27258;DHT22;62045;49.986;8.672;2022-12-29T10:14:11;16.20;64.80
27258;DHT22;62045;49.986;8.672;2022-12-29T10:19:32;16.20;64.60
27258;DHT22;62045;49.986;8.672;2022-12-29T10:24:38;16.10;64.40
27258;DHT22;62045;49.986;8.672;2022-12-29T10:29:42;16.10;65.10
27258;DHT22;62045;49.986;8.672;2022-12-29T10:34:48;16.00;64.40
27258;DHT22;62045;49.986;8.672;2022-12-29T10:39:52;16.00;64.30
27258;DHT22;62045;49.986;8.672;2022-12-29T10:44:54;16.00;64.20
27258;DHT22;62045;49.986;8.672;2022-12-29T10:49:55;16.00;64.10
27258;DHT22;62045;49.986;8.672;2022-12-29T10:55:00;16.00;64.10
27258;DHT22;62045;49.986;8.672;2022-12-29T11:00:10;16.00;64.00
27258;DHT22;62045;49.986;8.672;2022-12-29T11:05:18;16.00;63.90
27258;DHT22;62045;49.986;8.672;2022-12-29T11:10:30;16.00;63.80
27258;DHT22;62045;49.986;8.672;2022-12-29T11:15:41;16.00;63.80
27258;DHT22;62045;49.986;8.672;2022-12-29T11:20:42;16.00;63.80
27258;DHT22;62045;49.986;8.672;2022-12-29T11:25:44;16.00;63.80
27258;DHT22;62045;49.986;8.672;2022-12-29T11:30:44;16.00;63.90
27258;DHT22;62045;49.986;8.672;2022-12-29T11:35:57;15.90;63.90
27258;DHT22;62045;49.986;8.672;2022-12-29T11:41:01;15.90;64.00
27258;DHT22;62045;49.986;8.672;2022-12-29T11:46:02;15.90;64.00
27258;DHT22;62045;49.986;8.672;2022-12-29T11:51:03;15.90;64.00
27258;DHT22;62045;49.986;8.672;2022-12-29T11:56:09;15.90;64.00
27258;DHT22;62045;49.986;8.672;2022-12-29T12:01:13;15.80;63.90
27258;DHT22;62045;49.986;8.672;2022-12-29T12:06:19;15.80;64.00
27258;DHT22;62045;49.986;8.672;2022-12-29T12:11:24;15.90;64.00
27258;DHT22;62045;49.986;8.672;2022-12-29T12:16:31;15.80;63.90
27258;DHT22;62045;49.986;8.672;2022-12-29T12:21:37;15.90;63.80
27258;DHT22;62045;49.986;8.672;2022-12-29T12:26:46;15.90;63.80
27258;DHT22;62045;49.986;8.672;2022-12-29T12:31:52;15.80;64.00
27258;DHT22;62045;49.986;8.672;2022-12-29T12:37:26;15.90;65.10
27258;DHT22;62045;49.986;8.672;2022-12-29T12:42:39;16.00;65.70
27258;DHT22;62045;49.986;8.672;2022-12-29T12:47:59;16.10;65.30
27258;DHT22;62045;49.986;8.672;2022-12-29T12:53:31;16.20;65.20
27258;DHT22;62045;49.986;8.672;2022-12-29T12:58:43;16.20;65.20
27258;DHT22;62045;49.986;8.672;2022-12-29T13:04:03;16.20;65.00
27258;DHT22;62045;49.986;8.672;2022-12-29T13:09:25;16.10;64.80
27258;DHT22;62045;49.986;8.672;2022-12-29T13:14:37;16.10;64.80
27258;DHT22;62045;49.986;8.672;2022-12-29T13:19:45;16.10;64.70
27258;DHT22;62045;49.986;8.672;2022-12-29T13:24:57;16.10;64.60
27258;DHT22;62045;49.986;8.672;2022-12-29T13:30:09;16.10;64.60
27258;DHT22;62045;49.986;8.672;2022-12-29T13:35:31;16.10;64.70
27258;DHT22;62045;49.986;8.672;2022-12-29T13:40:38;16.00;64.50
27258;DHT22;62045;49.986;8.672;2022-12-29T13:45:42;16.00;64.50
27258;DHT22;62045;49.986;8.672;2022-12-29T13:50:44;16.00;64.50
27258;DHT22;62045;49.986;8.672;2022-12-29T13:55:53;16.00;64.50
27258;DHT22;62045;49.986;8.672;2022-12-29T14:01:01;16.00;64.40
27258;DHT22;62045;49.986;8.672;2022-12-29T14:06:11;16.00;64.40
27258;DHT22;62045;49.986;8.672;2022-12-29T14:11:15;16.00;64.50
27258;DHT22;62045;49.986;8.672;2022-12-29T14:16:27;16.00;64.40
27258;DHT22;62045;49.986;8.672;2022-12-29T14:21:28;16.00;64.40
27258;DHT22;62045;49.986;8.672;2022-12-29T14:26:35;16.00;65.20
27258;DHT22;62045;49.986;8.672;2022-12-29T14:31:37;16.00;65.00
27258;DHT22;62045;49.986;8.672;2022-12-29T14:36:39;16.00;64.80
27258;DHT22;62045;49.986;8.672;2022-12-29T14:41:41;16.00;66.10
27258;DHT22;62045;49.986;8.672;2022-12-29T14:46:49;16.10;66.10
27258;DHT22;62045;49.986;8.672;2022-12-29T14:52:05;16.10;65.60
27258;DHT22;62045;49.986;8.672;2022-12-29T14:57:13;16.20;65.30
27258;DHT22;62045;49.986;8.672;2022-12-29T15:02:20;16.20;65.20
27258;DHT22;62045;49.986;8.672;2022-12-29T15:07:21;16.20;65.00
27258;DHT22;62045;49.986;8.672;2022-12-29T15:12:30;16.20;64.80
27258;DHT22;62045;49.986;8.672;2022-12-29T15:17:34;16.20;64.90
27258;DHT22;62045;49.986;8.672;2022-12-29T15:22:35;16.20;64.80
27258;DHT22;62045;49.986;8.672;2022-12-29T15:27:36;16.10;64.90
27258;DHT22;62045;49.986;8.672;2022-12-29T15:32:43;16.10;64.80
27258;DHT22;62045;49.986;8.672;2022-12-29T15:37:44;16.10;64.80
27258;DHT22;62045;49.986;8.672;2022-12-29T15:42:54;16.10;64.70
27258;DHT22;62045;49.986;8.672;2022-12-29T15:47:58;16.10;64.60
27258;DHT22;62045;49.986;8.672;2022-12-29T15:53:00;16.10;64.50
27258;DHT22;62045;49.986;8.672;2022-12-29T15:58:04;16.10;64.80
27258;DHT22;62045;49.986;8.672;2022-12-29T16:03:12;16.10;64.60
27258;DHT22;62045;49.986;8.672;2022-12-29T16:08:27;16.10;64.50
27258;DHT22;62045;49.986;8.672;2022-12-29T16:13:30;16.10;64.50
27258;DHT22;62045;49.986;8.672;2022-12-29T16:18:35;16.10;64.50
27258;DHT22;62045;49.986;8.672;2022-12-29T16:23:36;16.10;64.50
27258;DHT22;62045;49.986;8.672;2022-12-29T16:28:40;16.10;64.50
27258;DHT22;62045;49.986;8.672;2022-12-29T16:33:45;16.10;64.50
27258;DHT22;62045;49.986;8.672;2022-12-29T16:38:47;16.10;64.50
27258;DHT22;62045;49.986;8.672;2022-12-29T16:43:47;16.10;64.50
27258;DHT22;62045;49.986;8.672;2022-12-29T16:48:52;16.10;64.50
27258;DHT22;62045;49.986;8.672;2022-12-29T16:53:55;16.10;64.50
27258;DHT22;62045;49.986;8.672;2022-12-29T16:59:01;16.10;64.40
27258;DHT22;62045;49.986;8.672;2022-12-29T17:04:08;16.10;64.60
27258;DHT22;62045;49.986;8.672;2022-12-29T17:09:17;16.10;64.80
27258;DHT22;62045;49.986;8.672;2022-12-29T17:14:21;16.10;64.70
27258;DHT22;62045;49.986;8.672;2022-12-29T17:19:28;16.10;64.60
27258;DHT22;62045;49.986;8.672;2022-12-29T17:24:29;16.10;64.60
27258;DHT22;62045;49.986;8.672;2022-12-29T17:29:33;16.10;64.50
27258;DHT22;62045;49.986;8.672;2022-12-29T17:34:36;16.20;64.50
27258;DHT22;62045;49.986;8.672;2022-12-29T17:39:37;16.10;64.30
27258;DHT22;62045;49.986;8.672;2022-12-29T17:44:38;16.10;64.30
27258;DHT22;62045;49.986;8.672;2022-12-29T17:49:40;16.10;64.50
27258;DHT22;62045;49.986;8.672;2022-12-29T17:54:43;16.10;64.40
27258;DHT22;62045;49.986;8.672;2022-12-29T17:59:45;16.10;64.30
27258;DHT22;62045;49.986;8.672;2022-12-29T18:04:47;16.20;64.30
27258;DHT22;62045;49.986;8.672;2022-12-29T18:09:48;16.20;64.20
27258;DHT22;62045;49.986;8.672;2022-12-29T18:14:49;16.20;64.10
27258;DHT22;62045;49.986;8.672;2022-12-29T18:19:51;16.20;65.50
27258;DHT22;62045;49.986;8.672;2022-12-29T18:24:51;16.20;65.00
27258;DHT22;62045;49.986;8.672;2022-12-29T18:29:52;16.30;65.00
27258;DHT22;62045;49.986;8.672;2022-12-29T18:34:54;16.30;65.20
27258;DHT22;62045;49.986;8.672;2022-12-29T18:39:55;16.30;65.10
27258;DHT22;62045;49.986;8.672;2022-12-29T18:44:55;16.30;65.00
27258;DHT22;62045;49.986;8.672;2022-12-29T18:49:57;16.20;64.80
27258;DHT22;62045;49.986;8.672;2022-12-29T18:54:58;16.20;64.80
27258;DHT22;62045;49.986;8.672;2022-12-29T18:59:59;16.20;64.70
27258;DHT22;62045;49.986;8.672;2022-12-29T19:05:01;16.20;64.70
27258;DHT22;62045;49.986;8.672;2022-12-29T19:10:03;16.10;64.60
27258;DHT22;62045;49.986;8.672;2022-12-29T19:15:04;16.10;64.50
27258;DHT22;62045;49.986;8.672;2022-12-29T19:20:25;16.10;65.30
27258;DHT22;62045;49.986;8.672;2022-12-29T19:25:27;16.20;66.40
27258;DHT22;62045;49.986;8.672;2022-12-29T19:30:28;16.30;67.50
27258;DHT22;62045;49.986;8.672;2022-12-29T19:35:30;16.30;68.40
27258;DHT22;62045;49.986;8.672;2022-12-29T19:40:32;16.40;68.10
27258;DHT22;62045;49.986;8.672;2022-12-29T19:45:32;16.30;67.90
27258;DHT22;62045;49.986;8.672;2022-12-29T19:50:34;16.30;67.50
27258;DHT22;62045;49.986;8.672;2022-12-29T19:55:35;16.30;67.20
27258;DHT22;62045;49.986;8.672;2022-12-29T20:00:37;16.30;67.00
27258;DHT22;62045;49.986;8.672;2022-12-29T20:05:39;16.30;66.80
27258;DHT22;62045;49.986;8.672;2022-12-29T20:10:40;16.30;66.60
27258;DHT22;62045;49.986;8.672;2022-12-29T20:15:42;16.20;66.30
27258;DHT22;62045;49.986;8.672;2022-12-29T20:20:44;16.20;66.20
27258;DHT22;62045;49.986;8.672;2022-12-29T20:25:45;16.20;66.10
27258;DHT22;62045;49.986;8.672;2022-12-29T20:30:55;16.20;66.10
27258;DHT22;62045;49.986;8.672;2022-12-29T20:36:05;16.20;65.90
27258;DHT22;62045;49.986;8.672;2022-12-29T20:41:06;16.20;65.90
27258;DHT22;62045;49.986;8.672;2022-12-29T20:46:07;16.10;65.70
27258;DHT22;62045;49.986;8.672;2022-12-29T20:51:09;16.10;65.70
27258;DHT22;62045;49.986;8.672;2022-12-29T20:56:13;16.10;65.60
27258;DHT22;62045;49.986;8.672;2022-12-29T21:01:15;16.10;65.60
27258;DHT22;62045;49.986;8.672;2022-12-29T21:06:17;16.10;65.50
27258;DHT22;62045;49.986;8.672;2022-12-29T21:11:19;16.10;65.40
27258;DHT22;62045;49.986;8.672;2022-12-29T21:16:20;16.10;65.50
27258;DHT22;62045;49.986;8.672;2022-12-29T21:21:23;16.10;65.40
27258;DHT22;62045;49.986;8.672;2022-12-29T21:26:24;16.10;65.40
27258;DHT22;62045;49.986;8.672;2022-12-29T21:31:27;16.10;65.30
27258;DHT22;62045;49.986;8.672;2022-12-29T21:36:30;16.10;65.30
27258;DHT22;62045;49.986;8.672;2022-12-29T21:41:31;16.00;65.30
27258;DHT22;62045;49.986;8.672;2022-12-29T21:46:33;16.00;65.30
27258;DHT22;62045;49.986;8.672;2022-12-29T21:51:36;16.10;65.40
27258;DHT22;62045;49.986;8.672;2022-12-29T21:56:36;16.10;65.30
27258;DHT22;62045;49.986;8.672;2022-12-29T22:01:37;16.10;65.20
27258;DHT22;62045;49.986;8.672;2022-12-29T22:06:39;16.10;65.10
27258;DHT22;62045;49.986;8.672;2022-12-29T22:11:40;16.10;65.00
27258;DHT22;62045;49.986;8.672;2022-12-29T22:16:41;16.10;64.90
27258;DHT22;62045;49.986;8.672;2022-12-29T22:21:43;16.10;64.80
27258;DHT22;62045;49.986;8.672;2022-12-29T22:26:43;16.10;64.90
27258;DHT22;62045;49.986;8.672;2022-12-29T22:31:44;16.10;64.90
27258;DHT22;62045;49.986;8.672;2022-12-29T22:36:46;16.10;65.00
27258;DHT22;62045;49.986;8.672;2022-12-29T22:41:47;16.00;64.90
27258;DHT22;62045;49.986;8.672;2022-12-29T22:46:47;16.00;64.90
27258;DHT22;62045;49.986;8.672;2022-12-29T22:51:50;16.00;65.20
27258;DHT22;62045;49.986;8.672;2022-12-29T22:56:50;16.00;65.20
27258;DHT22;62045;49.986;8.672;2022-12-29T23:01:51;16.00;65.20
27258;DHT22;62045;49.986;8.672;2022-12-29T23:06:53;16.00;65.10
27258;DHT22;62045;49.986;8.672;2022-12-29T23:11:54;16.00;65.00
27258;DHT22;62045;49.986;8.672;2022-12-29T23:16:55;16.00;64.90
27258;DHT22;62045;49.986;8.672;2022-12-29T23:21:57;16.00;65.00
27258;DHT22;62045;49.986;8.672;2022-12-29T23:26:57;16.00;64.80
27258;DHT22;62045;49.986;8.672;2022-12-29T23:31:58;16.00;64.60
27258;DHT22;62045;49.986;8.672;2022-12-29T23:37:00;15.90;64.60
27258;DHT22;62045;49.986;8.672;2022-12-29T23:42:01;16.00;64.50
27258;DHT22;62045;49.986;8.672;2022-12-29T23:47:01;16.00;64.50
27258;DHT22;62045;49.986;8.672;2022-12-29T23:52:03;16.00;64.40
27258;DHT22;62045;49.986;8.672;2022-12-29T23:57:04;15.90;64.30
